createdAt,value
2022-11-05T00:00:05.653Z,3.30
2022-11-05T00:02:50.984Z,3.58
2022-11-05T00:05:36.174Z,3.55
2022-11-05T00:08:23.108Z,3.00
2022-11-05T00:10:50.159Z,3.13
2022-11-05T00:13:36.216Z,3.20
2022-11-05T00:16:21.700Z,2.45
2022-11-05T00:19:06.408Z,2.10
2022-11-05T00:21:53.382Z,2.55
2022-11-05T00:24:39.147Z,2.33
2022-11-05T00:27:06.253Z,2.00
2022-11-05T00:29:33.162Z,2.15
2022-11-05T00:32:00.030Z,1.80
2022-11-05T00:34:26.927Z,1.95
2022-11-05T00:36:53.758Z,1.80
2022-11-05T00:39:20.694Z,1.60
2022-11-05T00:42:07.602Z,1.83
2022-11-05T00:44:53.160Z,1.92
2022-11-05T00:47:38.459Z,1.60
2022-11-05T00:50:05.708Z,1.70
2022-11-05T00:52:51.103Z,1.60
2022-11-05T00:55:17.912Z,1.60
2022-11-05T00:57:45.610Z,1.70
2022-11-05T01:00:13.067Z,1.60
2022-11-05T01:02:39.974Z,1.50
2022-11-05T01:05:07.335Z,1.77
2022-11-05T01:07:34.328Z,1.70
2022-11-05T01:10:01.173Z,1.77
2022-11-05T01:12:28.078Z,2.10
2022-11-05T01:14:54.973Z,1.95
2022-11-05T01:17:21.822Z,2.00
2022-11-05T01:19:48.647Z,2.00
2022-11-05T01:22:15.478Z,2.00
2022-11-05T01:24:42.321Z,2.50
2022-11-05T01:27:09.174Z,2.45
2022-11-05T01:29:36.111Z,2.10
2022-11-05T01:32:03.052Z,2.20
2022-11-05T01:34:29.983Z,2.22
2022-11-05T01:36:56.828Z,2.20
2022-11-05T01:39:23.665Z,2.60
2022-11-05T01:41:50.492Z,2.50
2022-11-05T01:44:52.244Z,2.50
2022-11-05T01:47:30.134Z,2.10
2022-11-05T01:50:00.754Z,2.50
2022-11-05T01:52:30.028Z,2.90
2022-11-05T01:54:57.359Z,2.40
2022-11-05T01:57:24.507Z,2.70
2022-11-05T01:59:56.433Z,2.53
2022-11-05T02:02:25.249Z,3.00
2022-11-05T02:04:58.437Z,3.00
2022-11-05T02:07:28.087Z,3.10
2022-11-05T02:09:57.933Z,3.00
2022-11-05T02:12:25.008Z,3.40
2022-11-05T02:14:51.875Z,3.40
2022-11-05T02:17:46.079Z,3.95
2022-11-05T02:20:52.158Z,3.50
2022-11-05T02:23:40.862Z,3.40
2022-11-05T02:26:07.688Z,4.20
2022-11-05T02:28:34.493Z,3.90
2022-11-05T02:31:35.554Z,3.90
2022-11-05T02:34:28.231Z,4.03
2022-11-05T02:37:02.151Z,5.00
2022-11-05T02:39:53.598Z,5.28
2022-11-05T02:42:59.568Z,5.28
2022-11-05T02:45:46.419Z,4.93
2022-11-05T02:48:39.220Z,5.00
2022-11-05T02:51:35.856Z,5.73
2022-11-05T02:54:17.667Z,5.30
2022-11-05T02:56:48.188Z,5.47
2022-11-05T02:59:15.204Z,5.30
2022-11-05T03:01:43.912Z,5.18
2022-11-05T03:04:13.874Z,5.13
2022-11-05T03:07:22.650Z,4.55
2022-11-05T03:10:07.541Z,4.55
2022-11-05T03:12:51.833Z,5.10
2022-11-05T03:15:21.790Z,5.35
2022-11-05T03:18:12.012Z,4.80
2022-11-05T03:21:19.878Z,4.60
2022-11-05T03:24:24.260Z,4.60
2022-11-05T03:26:59.090Z,4.60
2022-11-05T03:29:32.933Z,4.80
2022-11-05T03:32:01.866Z,5.28
2022-11-05T03:34:35.001Z,5.03
2022-11-05T03:37:04.033Z,4.78
2022-11-05T03:39:36.001Z,4.93
2022-11-05T03:42:07.767Z,4.78
2022-11-05T03:44:38.780Z,5.40
2022-11-05T03:47:15.294Z,4.90
2022-11-05T03:49:55.059Z,4.87
2022-11-05T03:52:27.890Z,4.95
2022-11-05T03:54:55.005Z,5.72
2022-11-05T03:57:29.625Z,5.75
2022-11-05T03:59:56.475Z,5.68
2022-11-05T04:02:26.142Z,5.97
2022-11-05T04:04:54.113Z,5.60
2022-11-05T04:07:39.462Z,5.53
2022-11-05T04:10:24.962Z,5.97
2022-11-05T04:13:10.917Z,5.63
2022-11-05T04:15:56.565Z,6.30
2022-11-05T04:18:23.421Z,5.72
2022-11-05T04:21:09.232Z,6.00
2022-11-05T04:23:54.509Z,5.85
2022-11-05T04:26:23.476Z,6.03
2022-11-05T04:29:09.789Z,5.87
2022-11-05T04:31:37.306Z,5.57
2022-11-05T04:34:04.292Z,5.35
2022-11-05T04:36:31.325Z,5.10
2022-11-05T04:38:58.315Z,4.47
2022-11-05T04:41:25.338Z,4.45
2022-11-05T04:43:52.348Z,4.45
2022-11-05T04:46:19.260Z,4.15
2022-11-05T04:48:46.108Z,4.20
2022-11-05T04:51:13.033Z,3.72
2022-11-05T04:53:39.882Z,3.53
2022-11-05T04:56:17.667Z,3.53
2022-11-05T04:58:44.781Z,4.40
2022-11-05T05:01:13.702Z,4.60
2022-11-05T05:03:41.009Z,4.90
2022-11-05T05:06:08.264Z,5.32
2022-11-05T05:08:35.598Z,5.25
2022-11-05T05:11:08.648Z,5.50
2022-11-05T05:13:35.751Z,5.40
2022-11-05T05:16:08.095Z,5.50
2022-11-05T05:18:35.765Z,5.75
2022-11-05T05:21:21.685Z,5.65
2022-11-05T05:23:48.813Z,5.00
2022-11-05T05:26:16.546Z,5.35
2022-11-05T05:28:43.439Z,5.25
2022-11-05T05:31:10.334Z,5.30
2022-11-05T05:33:37.286Z,5.78
2022-11-05T05:36:08.514Z,5.60
2022-11-05T05:38:38.083Z,5.45
2022-11-05T05:41:05.065Z,5.63
2022-11-05T05:43:33.660Z,5.47
2022-11-05T05:46:09.948Z,5.35
2022-11-05T05:48:36.922Z,5.70
2022-11-05T05:51:09.017Z,5.25
2022-11-05T05:53:37.514Z,4.90
2022-11-05T05:56:05.177Z,5.40
2022-11-05T05:58:34.798Z,5.30
2022-11-05T06:01:07.951Z,5.15
2022-11-05T06:03:35.147Z,5.40
2022-11-05T06:06:07.734Z,5.57
2022-11-05T06:08:35.261Z,5.38
2022-11-05T06:11:03.601Z,5.38
2022-11-05T06:13:31.482Z,5.68
2022-11-05T06:16:02.825Z,5.70
2022-11-05T06:18:31.585Z,5.40
2022-11-05T06:21:10.660Z,5.60
2022-11-05T06:23:39.317Z,5.27
2022-11-05T06:26:12.153Z,5.75
2022-11-05T06:28:39.409Z,5.60
2022-11-05T06:31:06.406Z,5.63
2022-11-05T06:33:33.243Z,5.50
2022-11-05T06:36:01.165Z,5.65
2022-11-05T06:38:29.477Z,5.10
2022-11-05T06:40:58.362Z,5.40
2022-11-05T06:43:25.542Z,5.90
2022-11-05T06:45:52.372Z,5.83
2022-11-05T06:48:19.203Z,6.13
2022-11-05T06:50:46.508Z,6.32
2022-11-05T06:53:14.144Z,6.10
2022-11-05T06:55:41.268Z,6.22
2022-11-05T06:58:08.090Z,5.75
2022-11-05T07:00:35.030Z,6.10
2022-11-05T07:03:06.936Z,5.90
2022-11-05T07:05:37.229Z,6.70
2022-11-05T07:08:04.277Z,6.65
2022-11-05T07:10:31.186Z,6.68
2022-11-05T07:12:58.065Z,6.82
2022-11-05T07:15:24.948Z,7.23
2022-11-05T07:17:57.752Z,7.47
2022-11-05T07:20:27.231Z,7.45
2022-11-05T07:23:10.558Z,7.72
2022-11-05T07:25:38.364Z,8.23
2022-11-05T07:28:06.135Z,8.27
2022-11-05T07:30:33.807Z,9.07
2022-11-05T07:33:01.077Z,8.80
2022-11-05T07:35:28.413Z,8.90
2022-11-05T07:37:55.954Z,8.88
2022-11-05T07:40:25.202Z,9.00
2022-11-05T07:42:54.127Z,8.38
2022-11-05T07:45:21.466Z,8.73
2022-11-05T07:47:53.692Z,8.40
2022-11-05T07:50:22.387Z,8.43
2022-11-05T07:52:49.960Z,8.70
2022-11-05T07:55:18.746Z,8.50
2022-11-05T07:57:50.902Z,8.50
2022-11-05T08:00:20.260Z,8.70
2022-11-05T08:03:18.036Z,9.35
2022-11-05T08:05:47.316Z,9.07
2022-11-05T08:08:19.069Z,8.27
2022-11-05T08:10:46.271Z,8.57
2022-11-05T08:13:14.117Z,8.55
2022-11-05T08:15:42.669Z,8.35
2022-11-05T08:18:15.143Z,8.00
2022-11-05T08:20:43.815Z,7.60
2022-11-05T08:23:11.565Z,7.50
2022-11-05T08:25:39.822Z,6.97
2022-11-05T08:28:10.553Z,6.47
2022-11-05T08:30:37.721Z,6.43
2022-11-05T08:33:07.537Z,5.70
2022-11-05T08:35:35.508Z,5.40
2022-11-05T08:38:04.831Z,5.47
2022-11-05T08:40:33.294Z,5.72
2022-11-05T08:43:02.635Z,5.88
2022-11-05T08:45:30.079Z,6.07
2022-11-05T08:48:05.302Z,6.10
2022-11-05T08:50:32.710Z,5.75
2022-11-05T08:52:59.807Z,5.72
2022-11-05T08:55:26.976Z,4.97
2022-11-05T08:58:03.274Z,5.13
2022-11-05T09:00:32.546Z,5.18
2022-11-05T09:03:00.962Z,5.15
2022-11-05T09:05:29.000Z,5.25
2022-11-05T09:08:00.868Z,4.93
2022-11-05T09:10:28.929Z,4.53
2022-11-05T09:12:55.995Z,4.55
2022-11-05T09:15:23.501Z,5.07
2022-11-05T09:17:51.137Z,4.63
2022-11-05T09:20:18.178Z,4.88
2022-11-05T09:22:46.260Z,4.40
2022-11-05T09:25:15.244Z,4.75
2022-11-05T09:27:42.803Z,4.50
2022-11-05T09:30:11.368Z,4.43
2022-11-05T09:32:38.667Z,4.30
2022-11-05T09:35:06.390Z,5.03
2022-11-05T09:37:33.385Z,4.40
2022-11-05T09:40:00.280Z,4.32
2022-11-05T09:42:37.856Z,4.50
2022-11-05T09:45:16.754Z,3.85
2022-11-05T09:47:48.648Z,4.32
2022-11-05T09:50:39.116Z,4.22
2022-11-05T09:53:06.558Z,4.07
2022-11-05T09:55:38.901Z,4.30
2022-11-05T09:58:15.307Z,4.55
2022-11-05T10:00:43.340Z,4.30
2022-11-05T10:03:19.073Z,4.18
2022-11-05T10:05:48.092Z,3.67
2022-11-05T10:08:28.946Z,3.72
2022-11-05T10:11:05.256Z,4.30
2022-11-05T10:13:41.011Z,3.83
2022-11-05T10:16:33.492Z,4.23
2022-11-05T10:19:16.834Z,4.05
2022-11-05T10:22:05.613Z,4.70
2022-11-05T10:24:30.557Z,4.23
2022-11-05T10:26:58.537Z,4.40
2022-11-05T10:29:32.470Z,4.50
2022-11-05T10:32:02.990Z,4.80
2022-11-05T10:34:34.211Z,4.73
2022-11-05T10:37:01.357Z,4.88
2022-11-05T10:39:31.556Z,4.80
2022-11-05T10:42:19.717Z,4.65
2022-11-05T10:45:14.416Z,4.30
2022-11-05T10:48:15.525Z,4.53
2022-11-05T10:50:44.683Z,4.53
2022-11-05T10:53:22.249Z,4.40
2022-11-05T10:55:50.989Z,4.20
2022-11-05T10:58:17.785Z,4.25
2022-11-05T11:01:00.187Z,4.57
2022-11-05T11:03:36.006Z,4.93
2022-11-05T11:06:24.830Z,4.50
2022-11-05T11:08:53.743Z,4.25
2022-11-05T11:11:29.087Z,4.35
2022-11-05T11:14:14.046Z,4.10
2022-11-05T11:16:46.077Z,4.13
2022-11-05T11:19:26.753Z,4.00
2022-11-05T11:22:05.758Z,4.18
2022-11-05T11:24:42.881Z,4.20
2022-11-05T11:27:33.261Z,4.07
2022-11-05T11:30:05.247Z,3.92
2022-11-05T11:32:39.994Z,4.38
2022-11-05T11:35:18.547Z,4.47
2022-11-05T11:37:46.773Z,4.57
2022-11-05T11:40:22.816Z,4.80
2022-11-05T11:42:53.710Z,4.87
2022-11-05T11:45:39.225Z,5.20
2022-11-05T11:48:07.793Z,5.40
2022-11-05T11:50:41.733Z,5.30
2022-11-05T11:53:20.650Z,4.97
2022-11-05T11:56:12.263Z,5.35
2022-11-05T11:58:43.677Z,4.55
2022-11-05T12:01:38.651Z,4.88
2022-11-05T12:04:08.311Z,3.85
2022-11-05T12:06:37.144Z,3.60
2022-11-05T12:09:28.021Z,4.00
2022-11-05T12:11:58.478Z,3.90
2022-11-05T12:14:54.893Z,4.30
2022-11-05T12:17:30.746Z,4.10
2022-11-05T12:20:36.179Z,4.00
2022-11-05T12:23:39.961Z,3.90
2022-11-05T12:26:34.093Z,3.90
2022-11-05T12:29:23.329Z,3.55
2022-11-05T12:32:13.221Z,3.63
2022-11-05T12:35:12.350Z,3.40
2022-11-05T12:37:56.580Z,2.92
2022-11-05T12:40:35.663Z,2.80
2022-11-05T12:43:18.185Z,2.72
2022-11-05T12:45:56.286Z,2.88
2022-11-05T12:48:41.350Z,3.35
2022-11-05T12:51:10.994Z,3.73
2022-11-05T12:54:04.533Z,3.70
2022-11-05T12:56:38.235Z,3.78
2022-11-05T12:59:40.115Z,4.03
2022-11-05T13:02:20.450Z,4.13
2022-11-05T13:04:56.481Z,3.90
2022-11-05T13:07:37.613Z,3.72
2022-11-05T13:10:19.268Z,3.60
2022-11-05T13:12:56.106Z,3.88
2022-11-05T13:15:29.566Z,3.42
2022-11-05T13:18:04.329Z,3.60
2022-11-05T13:20:39.272Z,3.30
2022-11-05T13:23:21.059Z,3.58
2022-11-05T13:25:56.767Z,3.47
2022-11-05T13:28:23.537Z,2.92
2022-11-05T13:30:58.188Z,3.88
2022-11-05T13:33:31.917Z,4.07
2022-11-05T13:36:23.101Z,4.50
2022-11-05T13:38:59.501Z,4.37
2022-11-05T13:41:35.379Z,4.63
2022-11-05T13:44:02.187Z,4.45
2022-11-05T13:46:47.719Z,4.25
2022-11-05T13:49:51.305Z,4.47
2022-11-05T13:52:36.048Z,4.37
2022-11-05T13:55:43.847Z,4.30
2022-11-05T13:58:31.765Z,4.50
2022-11-05T14:01:08.462Z,4.13
2022-11-05T14:03:36.039Z,4.10
2022-11-05T14:06:06.607Z,4.03
2022-11-05T14:08:43.539Z,4.07
2022-11-05T14:11:33.786Z,3.85
2022-11-05T14:14:23.290Z,3.72
2022-11-05T14:17:08.303Z,4.00
2022-11-05T14:20:04.032Z,3.50
2022-11-05T14:22:33.622Z,4.00
2022-11-05T14:25:01.798Z,3.08
2022-11-05T14:27:32.617Z,3.03
2022-11-05T14:30:00.395Z,3.50
2022-11-05T14:32:43.430Z,3.40
2022-11-05T14:35:16.045Z,3.37
2022-11-05T14:37:57.789Z,3.00
2022-11-05T14:40:31.874Z,3.33
2022-11-05T14:43:02.195Z,3.33
2022-11-05T14:45:38.736Z,3.17
2022-11-05T14:48:23.713Z,3.43
2022-11-05T14:50:51.314Z,3.58
2022-11-05T14:53:39.699Z,3.53
2022-11-05T14:56:15.220Z,3.60
2022-11-05T14:58:46.329Z,3.70
2022-11-05T15:01:34.361Z,3.47
2022-11-05T15:04:17.461Z,3.50
2022-11-05T15:07:02.823Z,3.72
2022-11-05T15:09:38.577Z,3.40
2022-11-05T15:12:32.708Z,3.40
2022-11-05T15:15:21.721Z,3.70
2022-11-05T15:18:03.855Z,3.70
2022-11-05T15:20:49.278Z,3.40
2022-11-05T15:23:20.373Z,3.50
2022-11-05T15:26:05.812Z,3.50
2022-11-05T15:28:43.779Z,3.72
2022-11-05T15:31:13.628Z,3.63
2022-11-05T15:33:46.794Z,3.30
2022-11-05T15:36:30.799Z,3.35
2022-11-05T15:41:46.423Z,3.65
2022-11-05T15:44:30.980Z,3.90
2022-11-05T15:47:08.565Z,3.90
2022-11-05T15:49:35.712Z,4.07
2022-11-05T15:52:02.691Z,3.55
2022-11-05T15:54:31.116Z,3.20
2022-11-05T15:56:59.472Z,3.50
2022-11-05T15:59:29.058Z,3.63
2022-11-05T16:02:18.715Z,3.58
2022-11-05T16:04:48.457Z,3.47
2022-11-05T16:07:16.390Z,3.95
2022-11-05T16:09:52.187Z,3.80
2022-11-05T16:12:19.361Z,3.88
2022-11-05T16:15:04.731Z,4.00
2022-11-05T16:17:39.384Z,3.67
2022-11-05T16:20:24.599Z,3.63
2022-11-05T16:22:58.300Z,3.50
2022-11-05T16:25:44.141Z,3.53
2022-11-05T16:28:24.182Z,3.70
2022-11-05T16:31:03.521Z,3.75
2022-11-05T16:33:38.687Z,4.20
2022-11-05T16:36:07.531Z,4.15
2022-11-05T16:38:34.408Z,4.20
2022-11-05T16:41:01.272Z,3.90
2022-11-05T16:43:28.184Z,3.72
2022-11-05T16:45:58.691Z,3.93
2022-11-05T16:48:26.497Z,3.70
2022-11-05T16:50:53.694Z,3.70
2022-11-05T16:53:20.554Z,3.67
2022-11-05T16:55:47.699Z,4.15
2022-11-05T16:58:19.955Z,4.00
2022-11-05T17:00:48.231Z,3.97
2022-11-05T17:03:15.275Z,4.50
2022-11-05T17:05:42.454Z,4.88
2022-11-05T17:08:09.583Z,4.75
2022-11-05T17:10:36.842Z,4.20
2022-11-05T17:13:04.363Z,4.38
2022-11-05T17:15:35.624Z,4.45
2022-11-05T17:18:04.110Z,4.70
2022-11-05T17:20:35.108Z,4.97
2022-11-05T17:23:06.588Z,4.38
2022-11-05T17:25:33.768Z,4.75
2022-11-05T17:28:01.206Z,4.80
2022-11-05T17:30:28.161Z,4.85
2022-11-05T17:32:55.272Z,4.68
2022-11-05T17:35:23.483Z,4.50
2022-11-05T17:37:50.567Z,5.07
2022-11-05T17:40:19.809Z,4.70
2022-11-05T17:42:46.804Z,4.82
2022-11-05T17:45:14.380Z,5.22
2022-11-05T17:47:41.662Z,4.90
2022-11-05T17:50:10.346Z,4.60
2022-11-05T17:52:37.846Z,5.00
2022-11-05T17:55:06.556Z,4.93
2022-11-05T17:57:33.382Z,4.65
2022-11-05T18:00:00.267Z,4.78
2022-11-05T18:02:29.452Z,4.70
2022-11-05T18:04:56.426Z,4.43
2022-11-05T18:07:23.310Z,4.68
2022-11-05T18:09:50.148Z,4.87
2022-11-05T18:12:17.076Z,5.50
2022-11-05T18:14:43.904Z,4.80
2022-11-05T18:17:10.871Z,4.88
2022-11-05T18:19:38.852Z,5.20
2022-11-05T18:22:06.089Z,4.45
2022-11-05T18:24:33.235Z,4.77
2022-11-05T18:27:00.185Z,4.80
2022-11-05T18:29:27.094Z,4.63
2022-11-05T18:31:54.001Z,4.85
2022-11-05T18:34:20.893Z,4.30
2022-11-05T18:36:52.057Z,4.63
2022-11-05T18:39:22.118Z,4.22
2022-11-05T18:41:49.001Z,4.67
2022-11-05T18:44:16.755Z,4.47
2022-11-05T18:46:57.832Z,4.35
2022-11-05T18:49:25.839Z,4.43
2022-11-05T18:51:52.757Z,4.18
2022-11-05T18:54:20.219Z,4.38
2022-11-05T18:56:47.097Z,4.20
2022-11-05T19:02:04.735Z,4.07
2022-11-05T19:04:31.854Z,4.45
2022-11-05T19:07:03.333Z,4.40
2022-11-05T19:09:31.739Z,4.32
2022-11-05T19:11:58.737Z,4.38
2022-11-05T19:14:25.800Z,4.20
2022-11-05T19:16:52.604Z,4.27
2022-11-05T19:19:19.608Z,4.35
2022-11-05T19:21:46.449Z,4.55
2022-11-05T19:24:20.354Z,4.47
2022-11-05T19:26:48.063Z,4.32
2022-11-05T19:29:14.978Z,4.77
2022-11-05T19:31:42.022Z,4.32
2022-11-05T19:34:08.907Z,4.65
2022-11-05T19:36:35.856Z,4.70
2022-11-05T19:39:06.385Z,4.70
2022-11-05T19:41:33.396Z,4.60
2022-11-05T19:44:01.874Z,5.03
2022-11-05T19:46:30.405Z,5.00
2022-11-05T19:48:57.606Z,5.70
2022-11-05T19:51:26.381Z,4.57
2022-11-05T19:53:55.049Z,5.05
2022-11-05T19:56:26.071Z,5.03
2022-11-05T19:58:53.912Z,4.93
2022-11-05T20:01:22.245Z,4.80
2022-11-05T20:03:50.076Z,4.82
2022-11-05T20:06:23.941Z,4.63
2022-11-05T20:09:20.143Z,4.70
2022-11-05T20:11:39.296Z,5.10
2022-11-05T20:14:07.690Z,4.57
2022-11-05T20:16:39.975Z,4.55
2022-11-05T20:19:10.610Z,5.20
2022-11-05T20:21:38.363Z,4.53
2022-11-05T20:24:05.611Z,4.60
2022-11-05T20:26:33.279Z,5.10
2022-11-05T20:29:00.776Z,4.78
2022-11-05T20:31:27.758Z,4.93
2022-11-05T20:33:54.898Z,5.07
2022-11-05T20:36:23.600Z,5.10
2022-11-05T20:38:52.510Z,5.10
2022-11-05T20:41:19.602Z,5.10
2022-11-05T20:43:47.981Z,5.10
2022-11-05T20:46:16.820Z,4.90
2022-11-05T20:48:44.527Z,4.78
2022-11-05T20:51:17.434Z,5.07
2022-11-05T20:53:44.369Z,5.25
2022-11-05T20:56:19.385Z,5.20
2022-11-05T20:58:47.296Z,4.97
2022-11-05T21:01:16.206Z,4.90
2022-11-05T21:03:44.465Z,5.10
2022-11-05T21:06:11.763Z,5.17
2022-11-05T21:08:39.118Z,5.33
2022-11-05T21:11:07.022Z,4.97
2022-11-05T21:13:34.103Z,4.93
2022-11-05T21:16:01.727Z,5.43
2022-11-05T21:18:34.232Z,5.20
2022-11-05T21:21:05.471Z,5.15
2022-11-05T21:23:32.368Z,5.25
2022-11-05T21:26:02.594Z,4.93
2022-11-05T21:28:29.427Z,5.18
2022-11-05T21:31:04.090Z,5.50
2022-11-05T21:33:31.569Z,5.15
2022-11-05T21:35:58.688Z,5.13
2022-11-05T21:38:26.035Z,4.85
2022-11-05T21:40:52.921Z,5.43
2022-11-05T21:43:19.754Z,5.30
2022-11-05T21:45:46.682Z,4.90
2022-11-05T21:48:15.271Z,5.47
2022-11-05T21:51:01.061Z,5.00
2022-11-05T21:53:46.220Z,5.13
2022-11-05T21:56:38.466Z,4.45
2022-11-05T21:59:24.139Z,5.22
2022-11-05T22:01:51.323Z,5.43
2022-11-05T22:04:18.342Z,4.70
2022-11-05T22:06:45.242Z,4.82
2022-11-05T22:09:12.062Z,5.00
2022-11-05T22:11:39.147Z,5.00
2022-11-05T22:14:06.013Z,4.90
2022-11-05T22:16:32.877Z,4.75
2022-11-05T22:19:00.139Z,4.97
2022-11-05T22:21:27.091Z,4.97
2022-11-05T22:23:54.004Z,5.10
2022-11-05T22:26:21.147Z,5.10
2022-11-05T22:28:48.185Z,4.87
2022-11-05T22:31:16.337Z,5.05
2022-11-05T22:33:43.971Z,4.95
2022-11-05T22:36:11.766Z,4.83
2022-11-05T22:38:39.636Z,4.82
2022-11-05T22:41:11.509Z,4.85
2022-11-05T22:43:38.759Z,4.72
2022-11-05T22:46:08.644Z,4.85
2022-11-05T22:48:36.777Z,5.00
2022-11-05T22:51:05.360Z,5.00
2022-11-05T22:53:32.348Z,4.72
2022-11-05T22:56:01.976Z,4.88
2022-11-05T22:58:28.824Z,5.45
2022-11-05T23:00:55.759Z,5.35
2022-11-05T23:03:24.233Z,4.85
2022-11-05T23:06:02.659Z,5.07
2022-11-05T23:08:48.939Z,5.28
2022-11-05T23:11:38.358Z,5.10
2022-11-05T23:14:10.721Z,4.90
2022-11-05T23:16:56.718Z,5.07
2022-11-05T23:19:42.439Z,4.88
2022-11-05T23:22:33.801Z,4.28
2022-11-05T23:25:00.951Z,4.35
2022-11-05T23:27:33.010Z,4.40
2022-11-05T23:30:07.671Z,4.60
2022-11-05T23:32:35.469Z,4.50
2022-11-05T23:35:02.606Z,4.55
2022-11-05T23:37:49.448Z,4.40
2022-11-05T23:40:21.628Z,4.43
2022-11-05T23:43:07.266Z,4.10
2022-11-05T23:45:52.833Z,4.60
2022-11-05T23:48:31.398Z,4.68
2022-11-05T23:51:05.463Z,4.43
2022-11-05T23:53:34.957Z,4.78
2022-11-05T23:56:05.534Z,4.18
2022-11-05T23:58:32.517Z,4.33
